Time;durP1;ratioP1;P1;durP2;ratioP2;P2;SDS_P1;SDS_P2;PMS_P1;PMS_P2;Temp;Humidity;BMP_temperature;BMP_pressure;BME280_temperature;BME280_humidity;BME280_pressure;Samples;Min_cycle;Max_cycle;Signal;HPM_P1;HPM_P2
2022/10/12 00:01:31;;;;;;;10.10;7.68;;;6.60;99.90;;;;;;5074663;28;20044;-29
2022/10/12 00:03:57;;;;;;;9.98;7.85;;;6.60;99.90;;;;;;5074587;28;20040;-30
2022/10/12 00:06:24;;;;;;;8.70;7.55;;;6.60;99.90;;;;;;5074289;28;20032;-29
2022/10/12 00:08:52;;;;;;;8.98;7.00;;;6.60;99.90;;;;;;5075068;28;20366;-31
2022/10/12 00:11:21;;;;;;;9.05;7.55;;;6.60;99.90;;;;;;5074373;28;20040;-29
2022/10/12 00:13:47;;;;;;;8.82;7.72;;;6.70;99.90;;;;;;5074476;28;20070;-29
2022/10/12 00:16:15;;;;;;;8.00;7.20;;;6.70;99.90;;;;;;5052491;28;20040;-29
2022/10/12 00:18:41;;;;;;;10.88;7.35;;;6.70;99.90;;;;;;5072403;28;20036;-29
2022/10/12 00:21:13;;;;;;;8.20;7.00;;;6.70;99.90;;;;;;5074592;28;20515;-30
2022/10/12 00:23:40;;;;;;;11.68;7.95;;;6.70;99.90;;;;;;5059804;28;20122;-30
2022/10/12 00:26:09;;;;;;;9.57;7.65;;;6.70;99.90;;;;;;5074528;28;20134;-29
2022/10/12 00:28:35;;;;;;;12.38;7.93;;;6.70;99.90;;;;;;5060221;28;20105;-29
2022/10/12 00:31:01;;;;;;;9.82;7.53;;;6.70;99.90;;;;;;5074058;28;20486;-30
2022/10/12 00:33:29;;;;;;;10.65;7.90;;;6.70;99.90;;;;;;5070177;28;20052;-30
2022/10/12 00:35:55;;;;;;;8.25;7.13;;;6.70;99.90;;;;;;5067656;28;20086;-29
2022/10/12 00:38:21;;;;;;;9.57;7.20;;;6.80;99.90;;;;;;5065298;28;20044;-29
2022/10/12 00:40:47;;;;;;;8.32;7.07;;;6.70;99.90;;;;;;5074332;28;20040;-30
2022/10/12 00:43:38;;;;;;;8.75;7.55;;;6.70;99.90;;;;;;5091500;28;20123;-30
2022/10/12 00:46:21;;;;;;;7.82;6.53;;;6.70;99.90;;;;;;5071145;28;20574;-30
2022/10/12 00:48:53;;;;;;;9.52;6.88;;;6.70;99.90;;;;;;5067118;28;20094;-29
2022/10/12 00:51:20;;;;;;;8.52;7.20;;;6.70;99.90;;;;;;5071192;28;20051;-30
2022/10/12 00:53:54;;;;;;;8.65;7.75;;;6.70;99.90;;;;;;5064246;28;20120;-29
2022/10/12 00:56:22;;;;;;;7.35;6.45;;;6.70;99.90;;;;;;5087114;28;20032;-32
2022/10/12 00:58:48;;;;;;;9.02;7.75;;;6.70;99.90;;;;;;5063647;28;20028;-29
2022/10/12 01:01:15;;;;;;;7.13;6.43;;;6.70;99.90;;;;;;5062546;28;20047;-29
2022/10/12 01:03:41;;;;;;;7.43;6.68;;;6.60;99.90;;;;;;5073491;28;20043;-30
2022/10/12 01:06:07;;;;;;;9.43;7.10;;;6.60;99.90;;;;;;5065365;28;20048;-29
2022/10/12 01:08:33;;;;;;;10.95;7.97;;;6.60;99.90;;;;;;5062788;28;20039;-29
2022/10/12 01:10:59;;;;;;;10.52;7.53;;;6.50;99.90;;;;;;5059217;28;20045;-30
2022/10/12 01:13:25;;;;;;;9.30;8.20;;;6.40;99.90;;;;;;5062985;28;20502;-29
2022/10/12 01:15:58;;;;;;;11.75;8.60;;;6.40;99.90;;;;;;5067721;28;20036;-31
2022/10/12 01:18:59;;;;;;;10.75;7.93;;;6.30;99.90;;;;;;5070149;28;20036;-29
2022/10/12 01:21:25;;;;;;;8.20;7.45;;;6.30;99.90;;;;;;5061552;28;20052;-29
2022/10/12 01:24:00;;;;;;;8.25;6.88;;;6.30;99.90;;;;;;5058656;28;20563;-29
2022/10/12 01:26:49;;;;;;;8.82;7.55;;;6.20;99.90;;;;;;5068854;28;20096;-30
2022/10/12 01:29:37;;;;;;;9.02;7.55;;;6.20;99.90;;;;;;5052690;28;20048;-30
2022/10/12 01:32:32;;;;;;;9.40;7.43;;;6.20;99.90;;;;;;5067845;28;20045;-29
2022/10/12 01:35:04;;;;;;;8.98;7.88;;;6.10;99.90;;;;;;5037699;28;20062;-30
2022/10/12 01:37:37;;;;;;;10.05;7.05;;;6.10;99.90;;;;;;5072785;28;20123;-29
2022/10/12 01:40:10;;;;;;;11.18;7.45;;;6.10;99.90;;;;;;5063211;28;20412;-29
2022/10/12 01:42:40;;;;;;;9.65;7.50;;;6.20;99.90;;;;;;5065285;28;20110;-29
2022/10/12 01:45:16;;;;;;;8.68;7.35;;;6.20;99.90;;;;;;5064419;28;20520;-29
2022/10/12 01:47:47;;;;;;;9.65;7.80;;;6.20;99.90;;;;;;5061720;28;20047;-27
2022/10/12 01:50:15;;;;;;;14.02;8.02;;;6.20;99.90;;;;;;5070738;28;20043;-27
2022/10/12 01:53:09;;;;;;;8.18;7.18;;;6.10;99.90;;;;;;5061375;28;20036;-27
2022/10/12 01:55:41;;;;;;;11.95;9.07;;;6.20;99.90;;;;;;5058297;28;20028;-27
2022/10/12 01:58:19;;;;;;;10.07;8.45;;;6.20;99.90;;;;;;5065433;28;20044;-30
2022/10/12 02:01:26;;;;;;;13.75;7.60;;;6.20;99.90;;;;;;5070979;28;20036;-27
2022/10/12 02:03:55;;;;;;;11.60;7.22;;;6.20;99.90;;;;;;5065291;28;20117;-28
2022/10/12 02:06:27;;;;;;;9.05;7.18;;;6.20;99.90;;;;;;5067927;28;20490;-28
2022/10/12 02:09:16;;;;;;;8.13;7.00;;;6.20;99.90;;;;;;5064417;28;20042;-27
2022/10/12 02:11:45;;;;;;;8.95;7.70;;;6.20;99.90;;;;;;5065730;28;20500;-29
2022/10/12 02:14:20;;;;;;;9.15;6.72;;;6.20;99.90;;;;;;5066506;28;20048;-30
2022/10/12 02:16:54;;;;;;;9.10;6.90;;;6.10;99.90;;;;;;5057531;28;20087;-28
2022/10/12 02:19:30;;;;;;;;;;;6.10;99.90;;;;;;5070475;28;20481;-27
2022/10/12 02:22:00;;;;;;;8.10;6.72;;;6.10;99.90;;;;;;5067970;28;20058;-29
2022/10/12 02:24:29;;;;;;;9.00;7.10;;;6.00;99.90;;;;;;5067738;28;20101;-30
2022/10/12 02:26:56;;;;;;;9.38;7.45;;;6.00;99.90;;;;;;5065221;28;20040;-27
2022/10/12 02:29:28;;;;;;;9.80;6.60;;;6.00;99.90;;;;;;5063860;28;20578;-29
2022/10/12 02:32:18;;;;;;;9.85;7.32;;;6.00;99.90;;;;;;5072571;28;20047;-27
2022/10/12 02:34:47;;;;;;;10.95;7.25;;;6.00;99.90;;;;;;5065661;28;20039;-28
2022/10/12 02:37:33;;;;;;;7.78;6.18;;;5.90;99.90;;;;;;5071521;28;20133;-28
2022/10/12 02:40:11;;;;;;;10.02;6.80;;;5.90;99.90;;;;;;5067620;28;20123;-28
2022/10/12 02:42:40;;;;;;;7.10;6.00;;;5.90;99.90;;;;;;5052833;28;20124;-27
2022/10/12 02:45:09;;;;;;;9.05;6.68;;;5.80;99.90;;;;;;5066835;28;20040;-28
2022/10/12 02:47:36;;;;;;;8.70;6.95;;;5.80;99.90;;;;;;5064654;28;20032;-28
2022/10/12 02:50:03;;;;;;;10.82;6.95;;;5.80;99.90;;;;;;5054378;28;20132;-28
2022/10/12 02:52:31;;;;;;;8.90;6.45;;;5.70;99.90;;;;;;5067274;28;20055;-29
2022/10/12 02:54:57;;;;;;;7.45;6.72;;;5.70;99.90;;;;;;5074360;28;20032;-28
2022/10/12 02:57:23;;;;;;;7.47;6.03;;;5.60;99.90;;;;;;5076367;28;20398;-27
2022/10/12 02:59:49;;;;;;;7.45;6.65;;;5.60;99.90;;;;;;5074379;28;20039;-28
2022/10/12 03:02:14;;;;;;;7.07;6.20;;;5.60;99.90;;;;;;5072683;28;20547;-28
2022/10/12 03:04:40;;;;;;;9.00;6.90;;;5.60;99.90;;;;;;5071587;28;20032;-29
2022/10/12 03:07:06;;;;;;;7.78;6.25;;;5.60;99.90;;;;;;5068464;28;20036;-28
2022/10/12 03:09:32;;;;;;;11.05;6.97;;;5.60;99.90;;;;;;5055936;28;20067;-28
2022/10/12 03:11:57;;;;;;;9.73;6.13;;;5.60;99.90;;;;;;5069227;28;20044;-28
2022/10/12 03:14:25;;;;;;;8.77;6.25;;;5.60;99.90;;;;;;5074231;28;20509;-27
2022/10/12 03:16:51;;;;;;;10.32;6.70;;;5.60;99.90;;;;;;5072626;28;20214;-28
2022/10/12 03:19:17;;;;;;;9.65;6.43;;;5.60;99.90;;;;;;5059720;28;20033;-28
2022/10/12 03:21:43;;;;;;;12.73;7.47;;;5.50;99.90;;;;;;5072763;28;20066;-28
2022/10/12 03:24:09;;;;;;;10.98;7.10;;;5.50;99.90;;;;;;5075417;28;20051;-28
2022/10/12 03:26:34;;;;;;;10.93;6.60;;;5.50;99.90;;;;;;5072324;28;20401;-29
2022/10/12 03:29:00;;;;;;;8.57;7.03;;;5.50;99.90;;;;;;5066723;28;20078;-28
2022/10/12 03:31:26;;;;;;;10.18;6.75;;;5.40;99.90;;;;;;5074946;28;20569;-28
2022/10/12 03:33:52;;;;;;;8.10;7.00;;;5.40;99.90;;;;;;5072572;28;20047;-29
2022/10/12 03:36:17;;;;;;;8.38;6.47;;;5.40;99.90;;;;;;5068084;28;20040;-29
2022/10/12 03:38:43;;;;;;;8.98;6.65;;;5.40;99.90;;;;;;5072191;28;20035;-30
2022/10/12 03:41:09;;;;;;;11.13;6.70;;;5.40;99.90;;;;;;5067229;28;20047;-29
2022/10/12 03:43:35;;;;;;;11.23;6.88;;;5.30;99.90;;;;;;5063680;28;20039;-28
2022/10/12 03:46:01;;;;;;;9.98;7.05;;;5.30;99.90;;;;;;5074869;28;20032;-29
2022/10/12 03:48:26;;;;;;;12.00;6.65;;;5.30;99.90;;;;;;5068127;28;20040;-31
2022/10/12 03:50:52;;;;;;;12.05;7.63;;;5.30;99.90;;;;;;5051519;28;20567;-28
2022/10/12 03:53:19;;;;;;;8.93;6.80;;;5.30;99.90;;;;;;5058930;28;20032;-28
2022/10/12 03:55:45;;;;;;;9.52;7.45;;;5.20;99.90;;;;;;5067654;28;20489;-31
2022/10/12 03:58:14;;;;;;;8.35;6.90;;;5.30;99.90;;;;;;5071604;28;20032;-29
2022/10/12 04:00:40;;;;;;;11.40;7.25;;;5.20;99.90;;;;;;5058216;28;20040;-30
2022/10/12 04:03:05;;;;;;;10.80;7.28;;;5.20;99.90;;;;;;5064861;28;20401;-30
2022/10/12 04:05:31;;;;;;;9.35;6.35;;;5.10;99.90;;;;;;5066093;28;20036;-28
2022/10/12 04:07:57;;;;;;;12.63;7.78;;;5.10;99.90;;;;;;5064894;28;20101;-28
2022/10/12 04:10:23;;;;;;;9.32;6.80;;;5.10;99.90;;;;;;5062781;28;20032;-29
2022/10/12 04:12:49;;;;;;;7.82;6.70;;;5.10;99.90;;;;;;5062623;28;20401;-29
2022/10/12 04:15:18;;;;;;;10.18;7.05;;;5.10;99.90;;;;;;5064948;28;20111;-29
2022/10/12 04:17:43;;;;;;;11.48;7.50;;;5.10;99.90;;;;;;5061073;28;20055;-28
2022/10/12 04:20:10;;;;;;;11.20;7.10;;;5.10;99.90;;;;;;5061091;28;20032;-28
2022/10/12 04:22:37;;;;;;;11.65;7.40;;;5.10;99.90;;;;;;5068865;28;20047;-27
2022/10/12 04:25:03;;;;;;;9.07;6.95;;;5.00;99.90;;;;;;5067869;28;20532;-28
2022/10/12 04:27:29;;;;;;;9.82;7.85;;;5.10;99.90;;;;;;5072539;28;20398;-29
2022/10/12 04:29:55;;;;;;;10.48;7.40;;;5.00;99.90;;;;;;5066155;28;20070;-29
2022/10/12 04:32:21;;;;;;;9.60;7.13;;;5.10;99.90;;;;;;5064338;28;20064;-29
2022/10/12 04:34:46;;;;;;;8.18;7.05;;;5.00;99.90;;;;;;5068676;28;20535;-27
2022/10/12 04:37:12;;;;;;;11.18;7.18;;;5.00;99.90;;;;;;5051947;28;20040;-27
2022/10/12 04:39:38;;;;;;;8.38;7.22;;;5.00;99.90;;;;;;5071850;28;20516;-29
2022/10/12 04:42:05;;;;;;;11.48;7.85;;;5.00;99.90;;;;;;5069537;28;20029;-27
2022/10/12 04:44:31;;;;;;;11.63;7.45;;;5.00;99.90;;;;;;5072974;28;20513;-27
2022/10/12 04:46:57;;;;;;;13.50;7.45;;;4.90;99.90;;;;;;5068823;28;20055;-27
2022/10/12 04:49:23;;;;;;;11.23;7.88;;;4.90;99.90;;;;;;5069768;28;20031;-29
2022/10/12 04:51:48;;;;;;;9.30;7.45;;;4.90;99.90;;;;;;5069485;28;20043;-27
2022/10/12 04:54:14;;;;;;;11.15;7.60;;;4.80;99.90;;;;;;5057341;28;20044;-29
2022/10/12 04:56:40;;;;;;;12.55;7.60;;;4.80;99.90;;;;;;5073056;28;20816;-30
2022/10/12 04:59:06;;;;;;;12.13;8.45;;;4.80;99.90;;;;;;5067442;28;20067;-30
2022/10/12 05:01:32;;;;;;;12.13;8.00;;;4.80;99.90;;;;;;5069223;28;20601;-30
2022/10/12 05:03:59;;;;;;;12.98;7.68;;;4.80;99.90;;;;;;5090511;28;20118;-29
2022/10/12 05:06:25;;;;;;;12.75;8.05;;;4.80;99.90;;;;;;5070209;28;20096;-28
2022/10/12 05:08:50;;;;;;;12.88;8.55;;;4.80;99.90;;;;;;5064550;28;20032;-30
2022/10/12 05:11:16;;;;;;;9.73;7.50;;;4.70;99.90;;;;;;5070015;28;20076;-30
2022/10/12 05:13:42;;;;;;;13.82;8.32;;;4.80;99.90;;;;;;5069960;28;20036;-30
2022/10/12 05:16:07;;;;;;;10.88;8.93;;;4.70;99.90;;;;;;5072382;28;20051;-31
2022/10/12 05:18:33;;;;;;;14.77;7.97;;;4.70;99.90;;;;;;5056770;28;20032;-29
2022/10/12 05:20:59;;;;;;;10.23;7.80;;;4.70;99.90;;;;;;5067495;28;20092;-29
2022/10/12 05:23:25;;;;;;;11.50;8.25;;;4.70;99.90;;;;;;5069411;28;20398;-29
2022/10/12 05:25:52;;;;;;;14.00;8.23;;;4.70;99.90;;;;;;5068131;28;20043;-31
2022/10/12 05:28:19;;;;;;;9.55;7.70;;;4.70;99.90;;;;;;5056183;28;20033;-29
2022/10/12 05:30:49;;;;;;;10.27;8.15;;;4.60;99.90;;;;;;5063043;28;20393;-31
2022/10/12 05:33:15;;;;;;;10.05;8.02;;;4.60;99.90;;;;;;5065604;28;20032;-29
2022/10/12 05:35:41;;;;;;;10.60;7.93;;;4.50;99.90;;;;;;5066521;28;20043;-28
2022/10/12 05:38:06;;;;;;;10.85;7.65;;;4.50;99.90;;;;;;5068848;28;20366;-29
2022/10/12 05:40:32;;;;;;;12.55;8.20;;;4.50;99.90;;;;;;5061760;28;20024;-30
2022/10/12 05:42:58;;;;;;;14.77;8.13;;;4.50;99.90;;;;;;5066613;28;20086;-29
2022/10/12 05:45:23;;;;;;;10.57;8.43;;;4.50;99.90;;;;;;5066924;28;20029;-28
2022/10/12 05:47:49;;;;;;;13.40;8.38;;;4.50;99.90;;;;;;5065065;28;20073;-30
2022/10/12 05:50:15;;;;;;;12.23;9.10;;;4.50;99.90;;;;;;5067660;28;20040;-29
2022/10/12 05:52:41;;;;;;;10.05;7.43;;;4.50;99.90;;;;;;5069667;28;20123;-29
2022/10/12 05:55:07;;;;;;;14.52;9.60;;;4.50;99.90;;;;;;5067210;28;20036;-29
2022/10/12 05:57:33;;;;;;;11.20;8.65;;;4.50;99.90;;;;;;5066789;28;20123;-32
2022/10/12 05:59:58;;;;;;;11.65;8.98;;;4.50;99.90;;;;;;5063560;28;20120;-33
2022/10/12 06:02:24;;;;;;;10.68;8.18;;;4.50;99.90;;;;;;5063335;28;20087;-32
2022/10/12 06:04:50;;;;;;;12.18;8.52;;;4.50;99.90;;;;;;5065684;28;20032;-33
2022/10/12 06:07:15;;;;;;;16.27;10.38;;;4.50;99.90;;;;;;5068810;28;20067;-31
2022/10/12 06:09:43;;;;;;;13.75;8.63;;;4.50;99.90;;;;;;5068267;28;20400;-33
2022/10/12 06:12:09;;;;;;;13.95;10.60;;;4.50;99.90;;;;;;5065079;28;20033;-32
2022/10/12 06:14:35;;;;;;;13.02;9.02;;;4.50;99.90;;;;;;5064815;28;20051;-35
2022/10/12 06:17:01;;;;;;;14.18;10.15;;;4.60;99.90;;;;;;5066000;28;20036;-34
2022/10/12 06:19:26;;;;;;;15.48;10.15;;;4.60;99.90;;;;;;5065570;28;20032;-32
2022/10/12 06:21:52;;;;;;;16.13;9.52;;;4.60;99.90;;;;;;5067669;28;20048;-32
2022/10/12 06:24:18;;;;;;;16.13;10.52;;;4.60;99.90;;;;;;5082902;28;20139;-32
2022/10/12 06:26:43;;;;;;;11.98;9.13;;;4.60;99.90;;;;;;5078093;28;20032;-32
2022/10/12 06:29:09;;;;;;;12.27;8.88;;;4.60;99.90;;;;;;5047426;28;20177;-31
2022/10/12 06:31:37;;;;;;;16.15;10.48;;;4.60;99.90;;;;;;5064641;28;20428;-33
2022/10/12 06:34:02;;;;;;;12.88;10.25;;;4.60;99.90;;;;;;5069396;28;20119;-32
2022/10/12 06:36:31;;;;;;;12.35;9.95;;;4.60;99.90;;;;;;5072924;28;20132;-32
2022/10/12 06:38:57;;;;;;;13.80;10.30;;;4.60;99.90;;;;;;5071003;28;20040;-31
2022/10/12 06:41:23;;;;;;;12.77;9.23;;;4.60;99.90;;;;;;5069532;28;20115;-35
2022/10/12 06:43:48;;;;;;;11.43;9.52;;;4.60;99.90;;;;;;5067246;28;20033;-31
2022/10/12 06:46:14;;;;;;;12.25;9.88;;;4.60;99.90;;;;;;5072410;28;20036;-31
2022/10/12 06:48:40;;;;;;;14.02;10.13;;;4.60;99.90;;;;;;5073757;28;20035;-33
2022/10/12 06:51:06;;;;;;;13.93;10.02;;;4.60;99.90;;;;;;5068909;28;20076;-33
2022/10/12 06:53:33;;;;;;;12.70;10.43;;;4.70;99.90;;;;;;5063850;28;20082;-30
2022/10/12 06:56:04;;;;;;;12.35;10.30;;;4.70;99.90;;;;;;5070303;28;20039;-31
2022/10/12 06:58:30;;;;;;;14.75;9.68;;;4.70;99.90;;;;;;5064403;28;20397;-32
2022/10/12 07:00:55;;;;;;;18.35;11.63;;;4.70;99.90;;;;;;5076372;28;20036;-33
2022/10/12 07:03:21;;;;;;;20.73;10.63;;;4.80;99.90;;;;;;5076262;28;20048;-35
2022/10/12 07:05:47;;;;;;;16.20;10.48;;;4.80;99.90;;;;;;5076364;28;20036;-31
2022/10/12 07:08:12;;;;;;;16.77;11.55;;;4.90;99.90;;;;;;5057046;28;20043;-32
2022/10/12 07:10:38;;;;;;;13.73;10.93;;;4.90;99.90;;;;;;5072511;28;20127;-33
2022/10/12 07:13:04;;;;;;;22.58;13.13;;;5.00;99.90;;;;;;5071835;28;20428;-31
2022/10/12 07:15:30;;;;;;;18.08;11.65;;;5.10;99.90;;;;;;5074506;28;20089;-34
2022/10/12 07:17:55;;;;;;;17.55;14.00;;;5.20;99.90;;;;;;5073192;28;20490;-32
2022/10/12 07:20:21;;;;;;;15.82;11.98;;;5.30;99.90;;;;;;5073870;28;20501;-31
2022/10/12 07:22:47;;;;;;;20.77;12.13;;;5.40;99.90;;;;;;5058420;28;20032;-34
2022/10/12 07:25:12;;;;;;;15.65;10.90;;;5.50;99.90;;;;;;5065441;28;20062;-33
2022/10/12 07:27:38;;;;;;;18.15;11.65;;;5.60;99.90;;;;;;5075107;28;20037;-32
2022/10/12 07:30:04;;;;;;;14.48;11.68;;;5.70;99.90;;;;;;5066628;28;20078;-31
2022/10/12 07:32:30;;;;;;;18.88;11.57;;;5.80;99.90;;;;;;5068301;28;20714;-36
2022/10/12 07:34:57;;;;;;;22.35;12.30;;;5.90;99.90;;;;;;5069723;28;20105;-33
2022/10/12 07:37:22;;;;;;;21.38;11.60;;;6.00;99.90;;;;;;5074840;28;20397;-31
2022/10/12 07:39:48;;;;;;;19.35;12.02;;;6.10;99.90;;;;;;5067930;28;20036;-32
2022/10/12 07:42:14;;;;;;;15.32;12.73;;;6.30;99.90;;;;;;5074733;28;20028;-31
2022/10/12 07:44:40;;;;;;;19.23;10.95;;;6.60;99.90;;;;;;5065649;28;20394;-33
2022/10/12 07:47:05;;;;;;;17.38;11.85;;;6.80;99.90;;;;;;5074159;28;20082;-34
2022/10/12 07:49:31;;;;;;;16.08;10.95;;;7.10;99.90;;;;;;5067129;28;20032;-33
2022/10/12 07:51:57;;;;;;;16.70;10.32;;;7.60;99.90;;;;;;5072760;28;20474;-32
2022/10/12 07:54:23;;;;;;;14.20;10.35;;;8.30;99.90;;;;;;5069914;28;20033;-32
2022/10/12 07:56:49;;;;;;;11.82;8.75;;;8.90;99.90;;;;;;5068657;28;20028;-33
2022/10/12 07:59:15;;;;;;;15.75;9.13;;;9.60;99.90;;;;;;5061993;28;20532;-32
2022/10/12 08:01:40;;;;;;;15.27;8.73;;;10.30;99.90;;;;;;5055391;28;20062;-33
2022/10/12 08:04:06;;;;;;;10.38;8.35;;;10.80;99.90;;;;;;5061265;28;20044;-33
2022/10/12 08:06:32;;;;;;;11.27;7.85;;;10.90;99.90;;;;;;5057986;28;20529;-35
2022/10/12 08:09:00;;;;;;;13.82;8.57;;;10.90;99.90;;;;;;5075581;28;20047;-31
2022/10/12 08:11:25;;;;;;;13.15;7.97;;;10.90;99.90;;;;;;5066603;28;20040;-32
2022/10/12 08:13:51;;;;;;;10.32;7.43;;;11.00;99.90;;;;;;5064587;28;20032;-31
2022/10/12 08:16:19;;;;;;;14.20;7.47;;;11.20;99.90;;;;;;5071372;28;20550;-34
2022/10/12 08:18:45;;;;;;;13.63;7.70;;;11.50;99.90;;;;;;5065618;28;20028;-33
2022/10/12 08:21:13;;;;;;;12.40;7.70;;;11.70;99.90;;;;;;5067616;28;20120;-35
2022/10/12 08:23:39;;;;;;;10.50;8.15;;;11.60;99.90;;;;;;5071308;28;20036;-34
2022/10/12 08:26:06;;;;;;;11.32;7.60;;;11.40;99.90;;;;;;5065345;28;20050;-33
2022/10/12 08:28:32;;;;;;;13.98;9.00;;;11.20;99.90;;;;;;5074788;28;20371;-35
2022/10/12 08:30:58;;;;;;;14.82;7.93;;;11.20;99.90;;;;;;5072076;28;20074;-33
2022/10/12 08:33:28;;;;;;;11.98;7.75;;;11.00;99.90;;;;;;5071768;28;20044;-35
2022/10/12 08:35:53;;;;;;;15.45;8.30;;;10.90;99.90;;;;;;5068200;28;20036;-32
2022/10/12 08:38:19;;;;;;;10.15;7.88;;;10.90;99.90;;;;;;5071387;28;20036;-32
2022/10/12 08:40:51;;;;;;;14.68;8.27;;;10.80;99.90;;;;;;5061474;28;20097;-33
2022/10/12 08:43:52;;;;;;;16.17;9.50;;;10.80;99.90;;;;;;5069788;28;20567;-34
2022/10/12 08:46:20;;;;;;;13.85;7.90;;;10.80;99.90;;;;;;5067807;28;20040;-35
2022/10/12 08:48:52;;;;;;;14.80;8.57;;;10.80;99.90;;;;;;5068305;28;20358;-33
2022/10/12 08:51:25;;;;;;;11.32;7.47;;;10.70;99.90;;;;;;5063023;28;20044;-34
2022/10/12 08:54:00;;;;;;;10.13;7.40;;;10.60;99.90;;;;;;5060597;28;20490;-33
2022/10/12 08:56:26;;;;;;;13.27;9.13;;;10.70;99.90;;;;;;5081963;28;20036;-33
2022/10/12 08:58:53;;;;;;;14.27;8.48;;;10.70;99.90;;;;;;5050806;28;20062;-32
2022/10/12 09:01:35;;;;;;;12.68;8.73;;;10.70;99.90;;;;;;5067281;28;20284;-32
2022/10/12 09:04:26;;;;;;;16.23;9.13;;;10.80;99.90;;;;;;5067230;28;20508;-32
2022/10/12 09:06:52;;;;;;;12.25;8.77;;;10.80;99.90;;;;;;5062352;28;20036;-34
2022/10/12 09:09:42;;;;;;;24.30;9.65;;;10.80;99.90;;;;;;5062754;28;20042;-31
2022/10/12 09:12:45;;;;;;;13.63;8.43;;;10.90;99.90;;;;;;5063245;28;20047;-33
2022/10/12 09:15:40;;;;;;;12.93;8.35;;;10.90;99.90;;;;;;5054553;28;20064;-32
2022/10/12 09:18:16;;;;;;;15.35;8.27;;;11.00;99.90;;;;;;5057292;28;20498;-34
2022/10/12 09:20:54;;;;;;;10.65;8.05;;;11.00;99.90;;;;;;5067136;28;20039;-33
2022/10/12 09:23:26;;;;;;;17.67;10.50;;;11.10;99.90;;;;;;5065815;28;20036;-34
2022/10/12 09:25:57;;;;;;;17.98;8.98;;;11.10;99.90;;;;;;5061270;28;20040;-32
2022/10/12 09:28:33;;;;;;;13.60;8.65;;;11.40;99.90;;;;;;5069393;28;20368;-35
2022/10/12 09:31:24;;;;;;;15.77;9.30;;;11.70;99.90;;;;;;5068838;28;20075;-35
2022/10/12 09:33:59;;;;;;;14.60;8.32;;;11.90;99.90;;;;;;5067360;28;20107;-32
2022/10/12 09:36:30;;;;;;;14.18;8.40;;;12.00;99.90;;;;;;5072013;28;20412;-32
2022/10/12 09:38:57;;;;;;;13.68;8.23;;;12.10;99.90;;;;;;5062221;28;20036;-36
2022/10/12 09:41:28;;;;;;;12.98;8.88;;;12.30;99.90;;;;;;5067492;28;20040;-34
2022/10/12 09:43:58;;;;;;;16.88;8.80;;;12.40;99.90;;;;;;5068360;28;20532;-35
2022/10/12 09:46:39;;;;;;;15.43;8.40;;;12.80;99.90;;;;;;5063535;28;20033;-34
2022/10/12 09:49:05;;;;;;;14.48;8.05;;;13.30;99.90;;;;;;5054219;28;20033;-34
2022/10/12 09:51:31;;;;;;;14.52;8.73;;;13.90;99.90;;;;;;5050963;28;20406;-35
2022/10/12 09:54:02;;;;;;;13.77;7.43;;;14.30;99.90;;;;;;5056660;28;20111;-34
2022/10/12 09:56:39;;;;;;;13.20;7.30;;;15.10;99.90;;;;;;5054222;28;20045;-35
2022/10/12 09:59:18;;;;;;;12.15;6.85;;;15.90;99.90;;;;;;5065077;28;20033;-37
2022/10/12 10:02:14;;;;;;;13.98;7.78;;;16.50;99.90;;;;;;5065046;28;20032;-35
2022/10/12 10:04:42;;;;;;;9.80;6.68;;;16.70;99.90;;;;;;5068274;28;20047;-37
2022/10/12 10:07:19;;;;;;;11.50;6.78;;;17.00;99.90;;;;;;5082871;28;20052;-35
2022/10/12 10:09:45;;;;;;;11.15;6.40;;;17.30;99.90;;;;;;5073001;28;20032;-33
2022/10/12 10:12:27;;;;;;;12.57;7.20;;;17.70;99.90;;;;;;5072322;28;20047;-35
2022/10/12 10:14:58;;;;;;;10.40;6.70;;;17.70;99.90;;;;;;5068331;28;20070;-35
2022/10/12 10:17:33;;;;;;;12.68;6.38;;;17.40;99.90;;;;;;5066391;28;20072;-35
2022/10/12 10:20:03;;;;;;;12.73;5.80;;;17.40;99.90;;;;;;5072545;28;20097;-34
2022/10/12 10:22:29;;;;;;;10.30;6.07;;;17.60;99.90;;;;;;5057787;28;20035;-34
2022/10/12 10:24:57;;;;;;;10.98;5.82;;;18.10;99.90;;;;;;5084341;28;20115;-37
2022/10/12 10:27:33;;;;;;;9.65;5.60;;;18.50;99.90;;;;;;5073956;28;20457;-35
2022/10/12 10:30:20;;;;;;;11.93;5.28;;;19.10;99.90;;;;;;5069648;28;20040;-36
2022/10/12 10:32:47;;;;;;;12.45;5.22;;;19.50;99.90;;;;;;5058933;28;20541;-36
2022/10/12 10:35:31;;;;;;;8.82;4.72;;;20.10;99.90;;;;;;5070020;28;20051;-36
2022/10/12 10:38:15;;;;;;;11.48;4.88;;;20.70;99.90;;;;;;5079326;28;20039;-35
2022/10/12 10:41:04;;;;;;;12.00;4.95;;;20.30;99.90;;;;;;5076802;28;20039;-35
2022/10/12 10:43:49;;;;;;;12.13;5.05;;;19.80;99.90;;;;;;5073266;28;20513;-34
2022/10/12 10:46:36;;;;;;;7.88;4.90;;;19.70;99.90;;;;;;5088055;28;20043;-37
2022/10/12 10:49:29;;;;;;;8.90;4.50;;;20.10;99.90;;;;;;5075785;28;20039;-33
2022/10/12 10:51:57;;;;;;;9.02;4.65;;;20.40;95.70;;;;;;5076347;28;20097;-29
2022/10/12 10:54:32;;;;;;;7.07;4.70;;;20.80;95.60;;;;;;5077028;28;20089;-30
2022/10/12 10:57:15;;;;;;;10.48;4.85;;;21.40;94.60;;;;;;5060700;28;20782;-30
2022/10/12 10:59:52;;;;;;;7.53;4.20;;;22.10;74.90;;;;;;5077337;28;20036;-30
2022/10/12 11:02:21;;;;;;;8.52;4.40;;;22.30;60.60;;;;;;5077272;28;20043;-30
2022/10/12 11:04:54;;;;;;;10.75;4.30;;;21.90;65.20;;;;;;5060002;28;20044;-30
2022/10/12 11:07:34;;;;;;;7.65;4.28;;;21.70;70.30;;;;;;5077071;28;20028;-31
2022/10/12 11:10:04;;;;;;;8.13;4.05;;;21.50;69.60;;;;;;5077103;28;20043;-31
2022/10/12 11:12:39;;;;;;;8.90;4.38;;;21.20;76.40;;;;;;5094224;28;20089;-31
2022/10/12 11:15:17;;;;;;;9.90;4.47;;;20.70;71.60;;;;;;5076623;28;20040;-31
2022/10/12 11:17:51;;;;;;;9.77;4.30;;;20.40;74.20;;;;;;5075779;28;20058;-31
2022/10/12 11:20:16;;;;;;;;;;;20.80;71.30;;;;;;5076753;28;20460;-31
2022/10/12 11:22:51;;;;;;;8.82;4.70;;;21.00;57.40;;;;;;5076533;28;19952;-31
2022/10/12 11:25:24;;;;;;;8.98;4.18;;;21.00;64.70;;;;;;5076478;28;20195;-30
2022/10/12 11:27:50;;;;;;;9.85;4.28;;;20.70;63.80;;;;;;5076798;28;20070;-30
2022/10/12 11:30:22;;;;;;;8.32;4.55;;;20.70;72.50;;;;;;5076758;28;20047;-33
2022/10/12 11:33:05;;;;;;;7.97;4.50;;;20.70;61.20;;;;;;5059607;28;20122;-32
2022/10/12 11:35:35;;;;;;;7.20;4.60;;;20.50;65.40;;;;;;5076464;28;20074;-30
2022/10/12 11:38:08;;;;;;;8.48;4.63;;;20.60;72.10;;;;;;5076053;28;20076;-30
2022/10/12 11:40:45;;;;;;;8.05;5.03;;;21.10;65.70;;;;;;5076161;28;20044;-30
2022/10/12 11:43:20;;;;;;;11.70;4.47;;;21.50;60.00;;;;;;5093316;28;20040;-30
2022/10/12 11:45:49;;;;;;;11.85;5.43;;;22.00;58.30;;;;;;5076371;28;20115;-30
2022/10/12 11:48:27;;;;;;;8.85;4.68;;;22.30;58.30;;;;;;5075866;28;20043;-31
2022/10/12 11:50:56;;;;;;;8.27;4.47;;;22.30;54.50;;;;;;5075972;28;20079;-30
2022/10/12 11:53:22;;;;;;;7.40;4.20;;;22.10;55.20;;;;;;5076076;28;20044;-30
2022/10/12 11:56:14;;;;;;;7.60;3.80;;;21.50;56.40;;;;;;5076244;28;20527;-30
2022/10/12 11:58:43;;;;;;;9.57;4.32;;;21.00;57.10;;;;;;5076085;28;20401;-32
2022/10/12 12:01:47;;;;;;;7.28;3.80;;;20.60;57.40;;;;;;5076338;28;20097;-30
2022/10/12 12:04:34;;;;;;;8.73;4.50;;;20.70;58.30;;;;;;4988004;28;20097;-30
2022/10/12 12:07:25;;;;;;;9.40;4.20;;;21.20;61.60;;;;;;5059096;28;20104;-31
2022/10/12 12:09:51;;;;;;;6.80;4.00;;;21.80;57.80;;;;;;5075540;28;20082;-30
2022/10/12 12:12:25;;;;;;;11.65;4.60;;;22.80;57.60;;;;;;5075483;28;20071;-31
2022/10/12 12:14:54;;;;;;;9.70;4.40;;;23.60;53.20;;;;;;5075495;28;20036;-30
2022/10/12 12:17:24;;;;;;;9.65;3.67;;;24.00;51.40;;;;;;5075543;28;20032;-30
2022/10/12 12:19:58;;;;;;;8.88;3.92;;;24.40;52.90;;;;;;5058671;28;20040;-31
2022/10/12 12:22:32;;;;;;;7.47;3.55;;;24.60;51.00;;;;;;5075621;28;20036;-31
2022/10/12 12:25:09;;;;;;;10.38;3.90;;;25.20;49.90;;;;;;5075443;28;20039;-30
2022/10/12 12:27:56;;;;;;;6.70;3.15;;;25.80;48.10;;;;;;5075655;28;20482;-31
2022/10/12 12:30:24;;;;;;;9.77;4.25;;;26.00;44.20;;;;;;5075486;28;20044;-30
2022/10/12 12:32:54;;;;;;;6.65;3.63;;;26.10;45.10;;;;;;5075508;28;20482;-31
2022/10/12 12:35:38;;;;;;;6.15;3.50;;;26.10;44.20;;;;;;5075535;28;20146;-31
2022/10/12 12:38:10;;;;;;;6.65;3.45;;;26.40;43.20;;;;;;5075474;28;20035;-30
2022/10/12 12:40:38;;;;;;;8.95;3.67;;;26.40;43.80;;;;;;5075335;28;20040;-30
2022/10/12 12:43:28;;;;;;;6.80;3.80;;;26.40;44.30;;;;;;5075057;28;20500;-30
2022/10/12 12:46:06;;;;;;;11.23;6.47;;;26.70;43.00;;;;;;5075102;28;20097;-30
2022/10/12 12:48:38;;;;;;;10.57;4.63;;;26.80;41.70;;;;;;5075241;28;20040;-30
2022/10/12 12:51:35;;;;;;;8.70;4.10;;;27.20;41.50;;;;;;5075152;28;20043;-31
2022/10/12 12:54:12;;;;;;;8.77;4.50;;;27.20;42.20;;;;;;5075130;28;20101;-31
2022/10/12 12:56:50;;;;;;;8.02;4.18;;;27.50;41.70;;;;;;5075064;28;20095;-31
2022/10/12 12:59:53;;;;;;;9.75;4.65;;;27.30;41.80;;;;;;5057980;28;20074;-32
2022/10/12 13:02:34;;;;;;;6.55;4.40;;;27.40;39.90;;;;;;5074790;28;20039;-31
2022/10/12 13:05:02;;;;;;;7.57;3.60;;;26.70;40.80;;;;;;5074545;28;20043;-30